Time;durP1;ratioP1;P1;durP2;ratioP2;P2;SDS_P1;SDS_P2;PMS_P1;PMS_P2;Temp;Humidity;BMP_temperature;BMP_pressure;BME280_temperature;BME280_humidity;BME280_pressure;Samples;Min_cycle;Max_cycle;Signal;HPM_P1;HPM_P2
2021/10/27 00:00:44;;;;;;;25.70;20.50;;;;;;;8.81;78.23;101074.69;85993;1313;80290;-68
2021/10/27 00:02:53;;;;;;;27.10;21.50;;;;;;;8.87;78.41;101072.60;85805;1313;98513;-62
2021/10/27 00:05:01;;;;;;;31.40;22.60;;;;;;;8.93;78.30;101070.56;85857;1314;88114;-61
2021/10/27 00:07:08;;;;;;;27.30;21.30;;;;;;;8.98;78.40;101068.83;85872;1319;91963;-62
2021/10/27 00:09:16;;;;;;;30.40;21.90;;;;;;;8.95;78.32;101066.94;85894;1313;78429;-66
2021/10/27 00:11:23;;;;;;;29.40;21.70;;;;;;;8.86;78.17;101071.08;85894;1313;81484;-66
2021/10/27 00:13:31;;;;;;;27.20;21.00;;;;;;;8.76;78.20;101071.48;85992;1317;97429;-64
2021/10/27 00:15:38;;;;;;;27.50;21.10;;;;;;;8.67;78.17;101074.79;85877;1312;88379;-63
2021/10/27 00:17:49;;;;;;;26.60;21.60;;;;;;;8.57;78.16;101077.83;85873;1313;94288;-66
2021/10/27 00:19:56;;;;;;;27.60;21.50;;;;;;;8.45;78.26;101078.70;85885;1310;78369;-67
2021/10/27 00:22:04;;;;;;;26.30;20.40;;;;;;;8.34;78.33;101079.65;85844;1313;81246;-67
2021/10/27 00:24:12;;;;;;;31.40;20.50;;;;;;;8.23;78.29;101079.52;85960;1313;98594;-63
2021/10/27 00:26:19;;;;;;;25.20;20.10;;;;;;;8.14;78.32;101078.16;85872;1316;87068;-67
2021/10/27 00:28:27;;;;;;;30.10;21.30;;;;;;;8.06;78.45;101079.34;85896;1313;95092;-63
2021/10/27 00:30:34;;;;;;;30.20;21.30;;;;;;;8.00;78.58;101078.48;85924;1313;79753;-64
2021/10/27 00:32:42;;;;;;;28.50;20.60;;;;;;;7.99;78.77;101078.35;85829;1314;80733;-66
2021/10/27 00:34:49;;;;;;;27.20;20.90;;;;;;;8.00;78.85;101079.84;85859;1319;96559;-65
2021/10/27 00:36:57;;;;;;;27.60;19.70;;;;;;;8.08;79.07;101082.02;85827;1317;88129;-64
2021/10/27 00:39:05;;;;;;;28.90;21.30;;;;;;;8.16;79.21;101082.59;85929;1319;93756;-68
2021/10/27 00:41:13;;;;;;;30.00;20.70;;;;;;;8.25;79.27;101085.93;85981;1313;79755;-68
2021/10/27 00:43:20;;;;;;;29.40;21.30;;;;;;;8.35;79.44;101089.67;85958;1313;81344;-67
2021/10/27 00:45:28;;;;;;;31.00;22.00;;;;;;;8.42;79.36;101089.42;85866;1313;98551;-67
2021/10/27 00:47:36;;;;;;;30.30;21.80;;;;;;;8.51;79.58;101095.36;85846;1315;86790;-67
2021/10/27 00:49:50;;;;;;;32.70;22.60;;;;;;;8.57;79.53;101088.77;85826;1317;94891;-65
2021/10/27 00:51:58;;;;;;;34.40;22.60;;;;;;;8.65;79.60;101083.06;85837;1315;79070;-63
2021/10/27 00:54:06;;;;;;;30.00;23.20;;;;;;;8.74;79.65;101079.77;85856;1314;83673;-67
2021/10/27 00:56:19;;;;;;;28.50;21.60;;;;;;;8.79;79.63;101080.80;85879;1317;98033;-67
2021/10/27 00:58:26;;;;;;;30.60;23.20;;;;;;;8.82;79.53;101080.35;85957;1313;87724;-66
2021/10/27 01:00:35;;;;;;;28.40;22.10;;;;;;;8.79;79.40;101079.99;85943;1313;94773;-66
2021/10/27 01:02:46;;;;;;;31.40;22.00;;;;;;;8.72;79.33;101079.13;85850;1313;79345;-65
2021/10/27 01:04:53;;;;;;;29.40;21.50;;;;;;;8.60;79.30;101074.24;85982;1314;82142;-66
2021/10/27 01:07:01;;;;;;;32.40;21.80;;;;;;;8.53;79.37;101075.69;85864;1313;98091;-66
2021/10/27 01:09:09;;;;;;;30.10;21.30;;;;;;;8.46;79.19;101079.86;85862;1318;87961;-64
2021/10/27 01:11:20;;;;;;;29.20;21.80;;;;;;;8.36;79.18;101076.46;85881;1313;93975;-64
2021/10/27 01:13:30;;;;;;;30.00;21.60;;;;;;;8.26;79.29;101074.25;85792;1313;79524;-67
2021/10/27 01:15:42;;;;;;;28.70;21.30;;;;;;;8.18;79.24;101079.16;85838;1317;81276;-68
2021/10/27 01:17:51;;;;;;;29.50;21.40;;;;;;;8.10;79.23;101082.19;85796;1314;96680;-66
2021/10/27 01:20:04;;;;;;;30.30;21.90;;;;;;;7.99;79.16;101085.45;85865;1317;89684;-67
2021/10/27 01:22:11;;;;;;;30.60;20.70;;;;;;;7.91;79.31;101084.42;85935;1314;94475;-67
2021/10/27 01:24:19;;;;;;;29.40;20.90;;;;;;;7.82;79.28;101085.23;85970;1313;79877;-64
2021/10/27 01:26:27;;;;;;;27.60;20.90;;;;;;;7.77;79.34;101087.02;85862;1319;82922;-62
2021/10/27 01:28:40;;;;;;;30.70;21.60;;;;;;;7.67;79.40;101086.88;85806;1313;97304;-68
2021/10/27 01:30:47;;;;;;;31.10;21.90;;;;;;;7.61;79.43;101085.71;85844;1315;88374;-67
2021/10/27 01:32:58;;;;;;;31.80;21.20;;;;;;;7.56;79.42;101085.48;85812;1313;94112;-65
2021/10/27 01:35:11;;;;;;;28.50;22.20;;;;;;;7.50;79.32;101090.23;85823;1315;80591;-68
2021/10/27 01:37:22;;;;;;;28.10;20.50;;;;;;;7.45;79.49;101095.02;85836;1313;82256;-68
2021/10/27 01:39:30;;;;;;;27.50;21.00;;;;;;;7.38;79.54;101097.91;85944;1313;98889;-64
2021/10/27 01:41:38;;;;;;;30.80;20.90;;;;;;;7.32;79.63;101099.23;85861;1315;88087;-64
2021/10/27 01:43:56;;;;;;;26.50;20.80;;;;;;;7.27;79.59;101104.61;85813;1313;94972;-66
2021/10/27 01:46:04;;;;;;;27.10;20.40;;;;;;;7.22;79.57;101108.98;85841;1313;78731;-67
2021/10/27 01:48:11;;;;;;;27.60;21.60;;;;;;;7.19;79.77;101101.97;85848;1318;82036;-64
2021/10/27 01:50:19;;;;;;;28.20;22.00;;;;;;;7.14;79.82;101099.59;85835;1314;97652;-64
2021/10/27 01:52:27;;;;;;;28.20;21.20;;;;;;;7.09;79.99;101101.54;85837;1313;88403;-64
2021/10/27 01:54:34;;;;;;;30.10;21.40;;;;;;;7.06;80.06;101098.40;85928;1313;95113;-68
2021/10/27 01:56:42;;;;;;;29.70;21.40;;;;;;;7.07;80.38;101102.62;85820;1314;81440;-67
2021/10/27 01:58:49;;;;;;;27.90;20.70;;;;;;;7.07;80.38;101104.05;85956;1313;81136;-67
2021/10/27 02:00:57;;;;;;;29.70;20.80;;;;;;;7.07;80.18;101107.09;85826;1313;97472;-67
2021/10/27 02:03:04;;;;;;;32.50;21.80;;;;;;;7.07;80.22;101107.65;85870;1316;88001;-63
2021/10/27 02:05:13;;;;;;;29.10;21.30;;;;;;;7.03;80.36;101111.54;85961;1314;94099;-63
2021/10/27 02:07:23;;;;;;;28.80;20.80;;;;;;;7.02;80.26;101108.87;85837;1310;80044;-64
2021/10/27 02:09:32;;;;;;;27.30;21.90;;;;;;;7.00;80.36;101105.46;85879;1317;82634;-64
2021/10/27 02:11:39;;;;;;;27.10;21.20;;;;;;;6.98;80.51;101103.31;85834;1313;96523;-65
2021/10/27 02:13:47;;;;;;;31.30;22.40;;;;;;;6.95;80.54;101107.77;85958;1313;88401;-65
2021/10/27 02:15:55;;;;;;;29.10;20.40;;;;;;;6.94;80.52;101113.34;85914;1313;93999;-66
2021/10/27 02:18:06;;;;;;;30.10;21.10;;;;;;;6.97;80.62;101112.54;85790;1313;81379;-67
2021/10/27 02:20:14;;;;;;;29.30;22.30;;;;;;;7.02;80.76;101115.77;85844;1314;81607;-69
2021/10/27 02:22:22;;;;;;;29.20;21.60;;;;;;;7.12;80.91;101117.19;85856;1313;97240;-67
2021/10/27 02:24:29;;;;;;;30.70;22.30;;;;;;;7.21;80.97;101115.89;85958;1316;87214;-65
2021/10/27 02:26:36;;;;;;;30.50;22.00;;;;;;;7.28;81.00;101117.58;85847;1313;93088;-65
2021/10/27 02:28:44;;;;;;;31.70;21.60;;;;;;;7.31;80.99;101115.66;85849;1320;81758;-64
2021/10/27 02:30:52;;;;;;;27.10;21.30;;;;;;;7.33;81.02;101110.25;85852;1313;80885;-67
2021/10/27 02:32:59;;;;;;;27.60;22.10;;;;;;;7.38;81.14;101113.15;85874;1317;97798;-66
2021/10/27 02:35:11;;;;;;;28.70;22.40;;;;;;;7.37;81.01;101118.11;85991;1313;87501;-67
2021/10/27 02:37:21;;;;;;;28.20;22.00;;;;;;;7.30;80.84;101120.02;85853;1320;96336;-67
2021/10/27 02:39:29;;;;;;;33.20;21.90;;;;;;;7.24;80.85;101117.80;85952;1319;81037;-66
2021/10/27 02:41:40;;;;;;;30.30;22.70;;;;;;;7.19;80.82;101118.76;85857;1313;80741;-67
2021/10/27 02:43:47;;;;;;;28.70;21.00;;;;;;;7.15;80.95;101115.75;85898;1313;97505;-64
2021/10/27 02:45:54;;;;;;;30.70;22.30;;;;;;;7.13;80.95;101113.42;85936;1316;88073;-64
2021/10/27 02:48:02;;;;;;;32.10;22.70;;;;;;;7.09;81.04;101111.15;85817;1316;93917;-67
2021/10/27 02:50:15;;;;;;;31.90;23.20;;;;;;;7.04;80.99;101110.77;85852;1313;80619;-67
2021/10/27 02:52:22;;;;;;;33.80;22.70;;;;;;;6.97;81.02;101110.35;85853;1313;81855;-66
2021/10/27 02:54:30;;;;;;;29.80;22.00;;;;;;;6.92;81.15;101111.98;85891;1306;95669;-63
2021/10/27 02:56:37;;;;;;;28.50;22.50;;;;;;;6.89;81.05;101113.87;85892;1313;87655;-64
2021/10/27 02:58:48;;;;;;;31.50;22.50;;;;;;;6.86;81.15;101113.14;85918;1313;93750;-66
2021/10/27 03:00:56;;;;;;;32.60;24.20;;;;;;;6.88;81.32;101120.07;85859;1316;78672;-66
2021/10/27 03:03:03;;;;;;;30.50;23.30;;;;;;;6.88;81.39;101124.60;85876;1317;82564;-66
2021/10/27 03:05:12;;;;;;;29.90;22.30;;;;;;;6.84;81.34;101127.11;85950;1313;97491;-66
2021/10/27 03:07:19;;;;;;;33.00;22.90;;;;;;;6.81;81.35;101125.61;85845;1313;89188;-68
2021/10/27 03:09:29;;;;;;;30.30;22.20;;;;;;;6.77;81.37;101126.54;85852;1313;93066;-66
2021/10/27 03:11:37;;;;;;;28.20;21.60;;;;;;;6.74;81.39;101124.79;85927;1313;79201;-67
2021/10/27 03:13:45;;;;;;;31.70;22.80;;;;;;;6.74;81.40;101125.02;85983;1316;81810;-62
2021/10/27 03:15:55;;;;;;;31.80;22.50;;;;;;;6.68;81.35;101125.58;85905;1313;97068;-64
2021/10/27 03:18:05;;;;;;;33.20;23.30;;;;;;;6.62;81.48;101131.55;85866;1313;86691;-66
2021/10/27 03:20:16;;;;;;;31.10;23.80;;;;;;;6.58;81.48;101136.45;86005;1313;93881;-67
2021/10/27 03:22:23;;;;;;;29.00;22.20;;;;;;;6.54;81.50;101136.79;85961;1314;79337;-66
2021/10/27 03:24:34;;;;;;;30.00;22.50;;;;;;;6.51;81.61;101138.45;85991;1316;82861;-63
2021/10/27 03:26:43;;;;;;;30.20;22.80;;;;;;;6.49;81.61;101138.12;85892;1313;98085;-65
2021/10/27 03:28:53;;;;;;;31.70;23.10;;;;;;;6.48;81.70;101141.07;85950;1313;87889;-64
2021/10/27 03:31:01;;;;;;;30.90;23.50;;;;;;;6.49;81.72;101143.46;85996;1306;93281;-65
2021/10/27 03:33:08;;;;;;;30.20;23.00;;;;;;;6.49;81.96;101143.52;85989;1313;80800;-69
2021/10/27 03:35:16;;;;;;;33.60;23.80;;;;;;;6.46;82.06;101143.61;85974;1313;80441;-68
2021/10/27 03:37:23;;;;;;;30.10;22.50;;;;;;;6.49;82.12;101142.61;85857;1313;97654;-69
2021/10/27 03:39:31;;;;;;;33.10;23.10;;;;;;;6.50;82.26;101143.44;85824;1319;88047;-63
2021/10/27 03:41:38;;;;;;;34.30;23.50;;;;;;;6.50;82.20;101142.67;85670;1316;93338;-64
2021/10/27 03:43:49;;;;;;;32.80;23.90;;;;;;;6.52;82.28;101148.77;85851;1318;80780;-67
2021/10/27 03:45:57;;;;;;;31.20;23.10;;;;;;;6.52;82.25;101150.15;85855;1317;82570;-67
2021/10/27 03:48:05;;;;;;;29.00;22.20;;;;;;;6.51;82.24;101148.88;85876;1313;98326;-63
2021/10/27 03:50:14;;;;;;;28.00;21.50;;;;;;;6.48;82.29;101151.13;85958;1313;88038;-64
2021/10/27 03:52:22;;;;;;;36.20;23.40;;;;;;;6.45;82.28;101150.17;85853;1313;94151;-63
2021/10/27 03:54:30;;;;;;;32.10;22.10;;;;;;;6.42;82.13;101150.06;85908;1312;80561;-64
2021/10/27 03:56:38;;;;;;;31.60;23.40;;;;;;;6.39;82.27;101147.35;85840;1313;83143;-65
2021/10/27 03:58:45;;;;;;;29.00;23.10;;;;;;;6.40;82.29;101148.52;85880;1314;97062;-67
2021/10/27 04:00:53;;;;;;;30.40;22.70;;;;;;;6.43;82.33;101151.59;85884;1319;88023;-67
2021/10/27 04:03:00;;;;;;;32.40;23.80;;;;;;;6.45;82.52;101148.17;85921;1313;95767;-64
2021/10/27 04:05:09;;;;;;;33.10;24.30;;;;;;;6.44;82.43;101150.22;85933;1313;78300;-65
2021/10/27 04:07:17;;;;;;;30.20;23.30;;;;;;;6.43;82.50;101145.69;85899;1313;81755;-65
2021/10/27 04:09:25;;;;;;;30.40;22.30;;;;;;;6.40;82.50;101141.54;85912;1313;98631;-65
2021/10/27 04:11:32;;;;;;;33.80;23.40;;;;;;;6.38;82.39;101141.30;85992;1311;87912;-64
2021/10/27 04:13:40;;;;;;;29.80;23.50;;;;;;;6.39;82.60;101141.26;85999;1313;93811;-64
2021/10/27 04:15:48;;;;;;;32.90;22.90;;;;;;;6.39;82.75;101145.38;85959;1313;78978;-63
2021/10/27 04:17:59;;;;;;;31.50;24.10;;;;;;;6.38;82.74;101144.98;85939;1313;80275;-62
2021/10/27 04:20:10;;;;;;;33.20;24.50;;;;;;;6.35;82.85;101144.09;85997;1317;97528;-63
2021/10/27 04:22:21;;;;;;;31.30;22.90;;;;;;;6.34;82.81;101147.94;85886;1316;87668;-64
2021/10/27 04:24:31;;;;;;;30.30;22.80;;;;;;;6.34;82.94;101147.40;85982;1313;93655;-66
2021/10/27 04:26:38;;;;;;;29.30;21.90;;;;;;;6.35;82.77;101151.32;85661;1313;79453;-67
2021/10/27 04:28:46;;;;;;;30.60;23.20;;;;;;;6.31;82.94;101150.55;85949;1309;81686;-67
2021/10/27 04:30:53;;;;;;;37.50;24.50;;;;;;;6.28;82.87;101146.59;85857;1313;98746;-67
2021/10/27 04:33:01;;;;;;;32.70;23.20;;;;;;;6.26;82.80;101148.73;85845;1314;87912;-67
2021/10/27 04:35:12;;;;;;;31.00;22.90;;;;;;;6.28;82.95;101153.27;85918;1313;94262;-67
2021/10/27 04:37:20;;;;;;;32.40;22.70;;;;;;;6.30;83.03;101151.77;85970;1314;80297;-66
2021/10/27 04:39:27;;;;;;;33.20;23.70;;;;;;;6.31;82.94;101155.59;85958;1313;81413;-64
2021/10/27 04:41:35;;;;;;;33.60;22.60;;;;;;;6.32;83.25;101155.86;85974;1313;97946;-64
2021/10/27 04:43:45;;;;;;;31.00;21.80;;;;;;;6.31;83.01;101152.05;85996;1313;86310;-63
2021/10/27 04:45:56;;;;;;;30.50;21.70;;;;;;;6.28;83.08;101155.40;85920;1313;92951;-65
2021/10/27 04:48:03;;;;;;;29.20;22.10;;;;;;;6.28;83.22;101156.44;85913;1313;81825;-64
2021/10/27 04:50:12;;;;;;;32.40;22.40;;;;;;;6.32;83.31;101152.84;85995;1317;82414;-65
2021/10/27 04:52:20;;;;;;;32.40;23.60;;;;;;;6.35;83.47;101154.98;85948;1314;98643;-65
2021/10/27 04:54:28;;;;;;;31.70;22.60;;;;;;;6.36;83.58;101155.13;85846;1317;87714;-65
2021/10/27 04:56:38;;;;;;;30.90;22.40;;;;;;;6.36;83.62;101157.05;85837;1317;94317;-65
2021/10/27 04:58:49;;;;;;;32.20;23.00;;;;;;;6.37;83.40;101157.59;85762;1308;80724;-66
2021/10/27 05:01:00;;;;;;;28.70;21.90;;;;;;;6.35;83.50;101156.35;85874;1314;80747;-66
2021/10/27 05:03:07;;;;;;;32.50;23.30;;;;;;;6.34;83.59;101156.02;85911;1317;96304;-64
2021/10/27 05:05:16;;;;;;;29.10;22.70;;;;;;;6.35;83.64;101157.90;85987;1313;87480;-64
2021/10/27 05:07:24;;;;;;;29.00;21.70;;;;;;;6.37;83.56;101159.49;85879;1319;94129;-64
2021/10/27 05:09:32;;;;;;;34.00;22.90;;;;;;;6.37;83.70;101156.25;85668;1321;81531;-62
2021/10/27 05:11:40;;;;;;;32.30;22.70;;;;;;;6.41;83.66;101160.23;85859;1314;80935;-67
2021/10/27 05:13:52;;;;;;;32.20;22.10;;;;;;;6.40;83.68;101155.99;85885;1319;97107;-66
2021/10/27 05:16:00;;;;;;;30.50;22.90;;;;;;;6.43;83.83;101160.85;85883;1313;87172;-66
2021/10/27 05:18:09;;;;;;;32.90;21.80;;;;;;;6.48;83.95;101166.29;85876;1313;93440;-65
2021/10/27 05:20:16;;;;;;;28.70;22.00;;;;;;;6.51;83.76;101168.37;85916;1318;81234;-63
2021/10/27 05:22:27;;;;;;;32.60;21.30;;;;;;;6.50;83.80;101168.23;85868;1314;81320;-64
2021/10/27 05:24:38;;;;;;;29.80;20.60;;;;;;;6.51;83.74;101164.61;85968;1316;98404;-63
2021/10/27 05:26:46;;;;;;;31.80;22.10;;;;;;;6.51;83.64;101167.27;85923;1313;88968;-64
2021/10/27 05:28:53;;;;;;;34.10;23.20;;;;;;;6.54;83.91;101167.92;85843;1313;94786;-66
2021/10/27 05:31:01;;;;;;;28.50;21.30;;;;;;;6.52;83.78;101169.56;85890;1313;78291;-67
2021/10/27 05:33:11;;;;;;;31.20;24.10;;;;;;;6.52;83.98;101172.17;85885;1317;81628;-67
2021/10/27 05:35:21;;;;;;;29.10;21.50;;;;;;;6.55;83.87;101171.76;85870;1317;96621;-68
2021/10/27 05:37:29;;;;;;;28.90;20.90;;;;;;;6.59;83.77;101179.66;85978;1313;88416;-67
2021/10/27 05:39:40;;;;;;;31.20;23.50;;;;;;;6.59;83.93;101182.29;85975;1306;93111;-65
2021/10/27 05:41:49;;;;;;;32.80;23.60;;;;;;;6.64;83.97;101182.52;85934;1313;81324;-66
2021/10/27 05:43:57;;;;;;;32.40;22.80;;;;;;;6.70;83.93;101181.24;85998;1314;80989;-62
2021/10/27 05:46:05;;;;;;;32.40;22.80;;;;;;;6.74;83.92;101177.78;85874;1318;98265;-61
2021/10/27 05:48:13;;;;;;;31.20;22.90;;;;;;;6.81;84.07;101179.83;85936;1313;88425;-62
2021/10/27 05:50:34;;;;;;;29.30;22.60;;;;;;;6.87;84.01;101184.98;85948;1316;94861;-62
2021/10/27 05:55:28;;;;;;;32.80;22.20;;;;;;;7.00;83.91;101187.96;85997;1313;80855;-65
2021/10/27 05:57:38;;;;;;;32.40;22.50;;;;;;;7.06;83.97;101186.33;85948;1319;99460;-66
2021/10/27 05:59:51;;;;;;;33.80;22.30;;;;;;;7.14;83.95;101185.52;85969;1313;88133;-65
2021/10/27 06:02:02;;;;;;;33.20;23.00;;;;;;;7.19;83.97;101183.87;85987;1313;92857;-65
2021/10/27 06:04:10;;;;;;;38.20;23.00;;;;;;;7.24;83.99;101185.98;86004;1318;79884;-63
2021/10/27 06:06:17;;;;;;;31.20;22.90;;;;;;;7.28;83.90;101181.95;85988;1310;80875;-62
2021/10/27 06:08:25;;;;;;;33.10;22.60;;;;;;;7.32;83.80;101186.30;85912;1313;96677;-62
2021/10/27 06:10:33;;;;;;;35.60;22.10;;;;;;;7.39;83.71;101187.05;85999;1317;89173;-62
2021/10/27 06:12:53;;;;;;;26.90;21.50;;;;;;;7.47;83.83;101186.91;85933;1313;94497;-63
2021/10/27 06:15:01;;;;;;;29.90;22.00;;;;;;;7.56;83.77;101189.77;85966;1316;80725;-62
2021/10/27 06:17:08;;;;;;;33.40;22.00;;;;;;;7.63;83.85;101194.13;85986;1313;79690;-63
2021/10/27 06:19:16;;;;;;;29.80;22.80;;;;;;;7.71;83.67;101199.23;85944;1313;97882;-62
2021/10/27 06:21:26;;;;;;;35.20;22.80;;;;;;;7.85;83.83;101198.06;85933;1317;87978;-62
2021/10/27 06:23:34;;;;;;;33.20;22.10;;;;;;;7.99;83.76;101193.80;85867;1317;95072;-66
2021/10/27 06:25:42;;;;;;;29.90;21.90;;;;;;;8.11;83.86;101197.02;85854;1319;79535;-65
2021/10/27 06:27:57;;;;;;;29.80;23.80;;;;;;;8.29;83.99;101201.52;85893;1315;81163;-65
2021/10/27 06:30:09;;;;;;;33.30;24.00;;;;;;;8.57;84.26;101198.64;85985;1319;98135;-63
2021/10/27 06:32:26;;;;;;;32.60;22.40;;;;;;;8.98;84.67;101206.02;85944;1319;88659;-63
2021/10/27 06:34:39;;;;;;;26.70;21.90;;;;;;;9.72;84.71;101204.16;85974;1319;93286;-63
2021/10/27 06:37:10;;;;;;;31.70;23.40;;;;;;;10.42;84.07;101204.35;85868;1313;79900;-63
2021/10/27 06:45:54;;;;;;;26.50;21.60;;;;;;;11.01;83.22;101204.46;85976;1317;81860;-61
2021/10/27 06:46:46;;;;;;;29.10;22.10;;;;;;;11.24;80.81;101218.08;85858;1317;94131;-64
2021/10/27 06:48:54;;;;;;;27.90;22.70;;;;;;;11.13;80.63;101224.74;85768;1320;79510;-64
2021/10/27 06:51:02;;;;;;;28.30;21.70;;;;;;;11.03;80.38;101224.46;85985;1319;83459;-64
2021/10/27 06:53:10;;;;;;;30.30;22.00;;;;;;;11.05;80.19;101222.73;85871;1318;97577;-64
2021/10/27 06:55:17;;;;;;;28.80;22.20;;;;;;;11.23;80.29;101228.43;85975;1318;88679;-66
2021/10/27 06:57:27;;;;;;;38.50;29.30;;;;;;;12.01;80.86;101230.39;85516;1316;531102;-66
2021/10/27 06:59:36;;;;;;;51.60;37.60;;;;;;;12.18;79.40;101230.75;85920;1313;81926;-66
2021/10/27 07:04:32;;;;;;;24.90;20.40;;;;;;;11.94;78.39;101224.94;85853;1319;98042;-64
2021/10/27 07:06:57;;;;;;;23.90;19.80;;;;;;;11.79;78.18;101225.80;85887;1313;88405;-66
2021/10/27 07:16:26;;;;;;;26.40;21.80;;;;;;;12.59;76.91;101226.08;85578;1321;98504;-63
2021/10/27 07:18:34;;;;;;;21.40;18.60;;;;;;;12.55;76.66;101223.27;85892;1317;86925;-67
2021/10/27 07:20:41;;;;;;;25.20;20.00;;;;;;;12.42;76.38;101226.54;85869;1314;95281;-68
2021/10/27 07:22:49;;;;;;;26.20;19.90;;;;;;;12.43;76.40;101226.68;85693;1319;78328;-65
2021/10/27 07:24:58;;;;;;;24.60;19.60;;;;;;;12.40;76.07;101226.30;85872;1317;82690;-65
2021/10/27 07:27:07;;;;;;;28.30;21.10;;;;;;;12.31;75.77;101227.38;85869;1313;97367;-66
2021/10/27 07:29:18;;;;;;;25.50;21.00;;;;;;;12.23;75.71;101222.93;85970;1314;87595;-65
2021/10/27 07:31:27;;;;;;;29.30;21.30;;;;;;;12.21;75.62;101226.52;85958;1319;93318;-64
2021/10/27 07:33:35;;;;;;;27.80;21.20;;;;;;;12.68;75.96;101226.27;85945;1320;80164;-67
2021/10/27 07:35:48;;;;;;;28.40;20.80;;;;;;;14.27;76.14;101230.26;85708;1316;83666;-65
2021/10/27 07:40:34;;;;;;;23.90;18.90;;;;;;;16.34;72.84;101224.90;85945;1320;87358;-66
2021/10/27 07:42:45;;;;;;;24.80;20.20;;;;;;;16.19;71.85;101228.61;85929;1314;94566;-66
2021/10/27 07:44:55;;;;;;;24.00;19.80;;;;;;;15.98;71.25;101231.69;85915;1313;79461;-65
2021/10/27 07:47:03;;;;;;;23.00;18.80;;;;;;;15.70;71.06;101227.92;85719;1319;83324;-63
2021/10/27 07:49:14;;;;;;;23.00;19.80;;;;;;;15.29;70.39;101231.44;85724;1319;98509;-65
2021/10/27 07:51:22;;;;;;;24.10;19.30;;;;;;;14.73;70.29;101235.84;85936;1317;88245;-64
2021/10/27 07:53:32;;;;;;;22.80;19.50;;;;;;;14.26;70.28;101240.73;85715;1314;94725;-65
2021/10/27 07:55:46;;;;;;;25.30;19.90;;;;;;;13.81;70.58;101239.23;85879;1313;80289;-68
2021/10/27 07:57:54;;;;;;;21.40;18.90;;;;;;;13.51;70.85;101238.73;85893;1313;82557;-66
2021/10/27 08:00:03;;;;;;;24.50;19.20;;;;;;;13.25;71.15;101242.27;85867;1317;97750;-70
2021/10/27 08:02:11;;;;;;;22.20;18.30;;;;;;;13.11;71.20;101240.61;85880;1319;88546;-68
2021/10/27 08:04:22;;;;;;;24.30;20.40;;;;;;;12.90;71.41;101240.96;85895;1314;94156;-64
2021/10/27 08:06:33;;;;;;;24.60;20.00;;;;;;;12.77;71.72;101242.20;85851;1320;79701;-65
2021/10/27 08:08:40;;;;;;;23.10;20.10;;;;;;;12.79;72.00;101243.34;85875;1313;81004;-64
2021/10/27 08:10:48;;;;;;;23.90;20.00;;;;;;;12.89;72.01;101235.61;85883;1319;99184;-67
2021/10/27 08:12:56;;;;;;;22.90;19.10;;;;;;;13.00;71.99;101237.00;85884;1313;88622;-64
2021/10/27 08:15:08;;;;;;;26.30;20.90;;;;;;;13.14;72.05;101237.73;85900;1320;95042;-65
2021/10/27 08:17:16;;;;;;;24.30;21.00;;;;;;;13.16;71.88;101240.02;85881;1314;78631;-67
2021/10/27 08:19:24;;;;;;;24.50;20.70;;;;;;;13.26;71.93;101239.16;85933;1313;80352;-69
2021/10/27 08:21:32;;;;;;;23.10;19.50;;;;;;;13.75;72.54;101237.09;85872;1313;98356;-63
2021/10/27 08:23:41;;;;;;;22.60;18.30;;;;;;;14.20;72.19;101236.73;85919;1319;87860;-64
2021/10/27 08:25:53;;;;;;;23.50;19.20;;;;;;;14.54;71.62;101238.06;85765;1319;95122;-64
2021/10/27 08:28:07;;;;;;;20.90;18.40;;;;;;;14.73;71.20;101231.80;85937;1317;80700;-68
2021/10/27 08:30:18;;;;;;;21.90;17.50;;;;;;;15.00;70.74;101231.64;85910;1313;82054;-68
2021/10/27 08:32:40;;;;;;;22.10;18.30;;;;;;;15.28;70.17;101229.84;85872;1320;99124;-62
2021/10/27 08:34:48;;;;;;;23.10;18.10;;;;;;;15.40;69.88;101233.63;85866;1320;87954;-63
2021/10/27 08:36:56;;;;;;;22.60;18.30;;;;;;;15.30;69.27;101238.64;85835;1314;94588;-63
2021/10/27 08:39:08;;;;;;;24.00;17.90;;;;;;;15.12;69.09;101242.95;85883;1320;79325;-62
2021/10/27 08:41:19;;;;;;;22.90;18.50;;;;;;;14.94;68.93;101248.67;85919;1319;83185;-63
2021/10/27 08:43:26;;;;;;;22.60;18.20;;;;;;;14.84;68.91;101252.34;85800;1316;96859;-66
2021/10/27 08:45:34;;;;;;;21.80;16.80;;;;;;;14.80;68.63;101248.89;85903;1314;86731;-66
2021/10/27 08:47:49;;;;;;;21.20;18.00;;;;;;;14.79;68.81;101249.48;85878;1313;94691;-66
2021/10/27 08:49:58;;;;;;;19.50;16.80;;;;;;;14.91;68.65;101242.20;85845;1319;79493;-66
2021/10/27 08:52:11;;;;;;;23.70;18.00;;;;;;;15.03;68.78;101241.46;85871;1319;82602;-67
2021/10/27 08:54:20;;;;;;;20.30;16.80;;;;;;;15.89;68.88;101242.87;85846;1317;97702;-67
2021/10/27 08:56:31;;;;;;;22.20;17.10;;;;;;;17.13;68.17;101239.52;85869;1313;89256;-64
2021/10/27 08:58:41;;;;;;;20.80;16.10;;;;;;;17.92;66.94;101234.86;85908;1313;93928;-61
2021/10/27 09:01:00;;;;;;;24.40;17.20;;;;;;;18.66;65.90;101231.69;85773;1316;79607;-62
2021/10/27 09:03:16;;;;;;;20.50;16.60;;;;;;;18.60;64.52;101229.02;85916;1320;82326;-67
2021/10/27 09:08:37;;;;;;;20.10;15.80;;;;;;;18.15;62.45;101223.85;85446;1318;86692;-63
2021/10/27 09:16:10;;;;;;;18.30;15.70;;;;;;;16.81;62.75;101210.34;85924;1315;80254;-61
2021/10/27 09:34:01;;;;;;;17.30;14.70;;;;;;;15.82;63.83;101213.43;85985;1314;88095;-63
2021/10/27 09:36:16;;;;;;;19.90;14.00;;;;;;;15.69;64.14;101217.44;85906;1319;95422;-63
2021/10/27 09:41:31;;;;;;;18.30;13.10;;;;;;;15.48;64.46;101215.49;85620;1322;80026;-67
2021/10/27 09:56:40;;;;;;;;;;;;;;;15.16;64.97;101227.52;85944;1320;97743;-67
2021/10/27 10:06:12;;;;;;;18.10;13.30;;;;;;;14.76;65.16;101236.34;85884;1313;82150;-63
2021/10/27 10:08:20;;;;;;;15.60;12.90;;;;;;;14.72;65.25;101235.89;85868;1320;98630;-63
2021/10/27 10:10:27;;;;;;;18.00;13.80;;;;;;;14.68;65.44;101234.60;85868;1320;87597;-63
2021/10/27 10:12:38;;;;;;;17.60;13.70;;;;;;;14.65;65.50;101230.60;85721;1314;92084;-62
2021/10/27 10:14:49;;;;;;;16.30;12.80;;;;;;;14.60;65.65;101227.53;85899;1319;78399;-66
2021/10/27 10:17:00;;;;;;;19.60;14.20;;;;;;;14.62;65.60;101226.85;85915;1319;81968;-66
2021/10/27 10:19:12;;;;;;;18.50;12.90;;;;;;;14.68;65.71;101230.59;85905;1313;98023;-66
2021/10/27 10:21:26;;;;;;;16.90;13.60;;;;;;;14.75;65.81;101225.49;85888;1315;88166;-65
2021/10/27 10:23:34;;;;;;;15.20;13.50;;;;;;;14.83;65.90;101228.45;85905;1313;92833;-66
2021/10/27 10:25:52;;;;;;;18.40;14.00;;;;;;;14.96;65.93;101221.48;85887;1320;80015;-65
2021/10/27 10:28:17;;;;;;;16.60;14.50;;;;;;;15.06;65.84;101221.89;85908;1319;82448;-62
2021/10/27 10:30:34;;;;;;;17.30;13.50;;;;;;;15.09;65.81;101222.41;85840;1320;98252;-61
2021/10/27 10:33:02;;;;;;;15.70;14.00;;;;;;;15.10;65.95;101216.69;85842;1320;88582;-63
2021/10/27 10:35:31;;;;;;;20.60;13.70;;;;;;;15.01;65.76;101215.66;85798;1319;94335;-62
2021/10/27 10:37:47;;;;;;;21.40;13.90;;;;;;;14.88;65.76;101214.60;85824;1320;80922;-63
2021/10/27 10:39:56;;;;;;;17.20;13.80;;;;;;;14.76;65.94;101213.59;85892;1319;82494;-67
2021/10/27 10:59:23;;;;;;;15.70;12.10;;;;;;;14.61;66.47;101196.34;85900;1320;88287;-66
2021/10/27 11:01:52;;;;;;;21.00;13.40;;;;;;;14.57;66.27;101193.75;85946;1319;95370;-64
2021/10/27 11:24:30;;;;;;;16.70;12.40;;;;;;;14.40;66.61;101204.02;85847;1320;86894;-66
2021/10/27 11:26:58;;;;;;;19.20;14.30;;;;;;;14.34;66.70;101203.83;85855;1313;94366;-66
2021/10/27 11:39:20;;;;;;;13.90;10.90;;;;;;;14.95;66.71;101195.21;85862;1320;93462;-66
2021/10/27 11:41:39;;;;;;;14.10;10.50;;;;;;;15.14;66.67;101193.89;85904;1320;80757;-66
2021/10/27 11:43:57;;;;;;;15.40;10.10;;;;;;;15.31;66.55;101197.34;85908;1314;81951;-65
2021/10/27 11:46:13;;;;;;;14.70;10.40;;;;;;;15.46;66.49;101193.14;85907;1314;98218;-63
2021/10/27 11:48:44;;;;;;;16.50;10.80;;;;;;;15.52;66.13;101193.65;85902;1320;88212;-64
2021/10/27 11:50:52;;;;;;;12.80;9.80;;;;;;;15.51;65.93;101185.71;85845;1314;94761;-63